San Jose Tobias Bolanos, Costa Rica

11:46 AM CST on July 24, 2014 (GMT -0600)
Pozos de Santa Ana (ISANJOSS2) Elev 2825 ft | 9.96 °N, 84.19 °W | Change Station

Current weather conditions updated 1 minute ago

Partly Cloudy
Partly Cloudy
89.8 °F
Feels Like 91 °F
N
9.8
Wind Variable Wind from SE
Gusts 12.1 mph

Today is forecast to be Warmer than yesterday. Thunderstorms.

Today
High -- | Low -- °F
--% Chance of Precip.
Yesterday
High -- | Low -- °F
Precip. -- in
5:25 AM 6:01 PM
Waning Crescent, 4% visible
Pressure 29.98 in
Visibility 6.2 miles
Clouds Few 3500 ft
Heat Index 91 °F
Dew Point 63 °F
Humidity 41%
Rainfall 0.00 in
Snow Depth Not available.
UV 16 out of 12
Pollen Not available.
Air Quality Not available.
Flu Activity Not available.
METAR MRPV 241700Z 08017KT 9999 FEW035 26/17 A2998 NOSIG

More Conditions Fewer Conditions

Pressure 29.98 in
Visibility 6.2 miles
Clouds Few 3500 ft
Heat Index 91 °F
Dew Point 63 °F
Humidity 41%
Rainfall 0.00 in
Snow Depth Not available.
UV 16 out of 12
Pollen Not available.
Air Quality Not available.
Flu Activity Not available.
METAR MRPV 241700Z 08017KT 9999 FEW035 26/17 A2998 NOSIG

More Conditions Fewer Conditions

10-Day Weather Forecast

Almanac

Astronomy

Jul. 24, 2014 Rise Set
Actual Time 5:25 AM CST 6:01 PM CST
Civil Twilight 5:02 AM CST 6:23 PM CST
Nautical Twilight 4:36 AM CST 6:49 PM CST
Astronomical Twilight 4:09 AM CST 7:16 PM CST
Moon 3:29 AM CST 4:20 PM CST
Length of Visible Light 13h 21m
Length of Day
12h 36m
Tomorrow will be 0m 21s shorter.
Waning Crescent, 4% of the Moon is Illuminated
Today
Waning Crescent
Jul 26
New
Aug 3
First Quarter
Aug 10
Full
Aug 17
Last Quarter

Today's Extremes

Country Highs Country Lows

Community

WunderPhotos

Upload Photos

1,737,079 photos uploaded!

Nearby

Snow Depth

Not available.

Earthquake Activity

City Distance Mag. Time & Date
No recent earthquake activity has been reported nearby.
Minimum magnitude displayed is 2.5.

Coastal Water Temperatures

Place Temperature
No Stations Reporting

Nearby Weather Stations

Station Location Temp. Heat Index Dew Point Humidity Wind Precip. Elev Updated Type
Pozos de Santa Ana, San José 89.8 °F 91 °F 63 °F 41% SE  at  9.8 mph 0.00 in / hr 2825 ft 11:45 AM CST Rapid Fire
Escalante, San Jose 75.9 °F 78 °F 65 °F 68% NNE  at  14.0 mph 0.00 in / hr 3911 ft 11:46 AM CST Rapid Fire
San Pedro 76.0 °F 78 °F 62 °F 62% ENE  at  6.0 mph 0.00 in / hr 3960 ft 11:45 AM CST Normal
Villas San Marino #62, Tres Rios 75.0 °F 77 °F 61 °F 62% South  at  9.8 mph 0.00 in / hr 4131 ft 9:00 AM CST Normal
La Union 78.1 °F 79 °F 59 °F 52% West  at  10.7 mph 0.00 in / hr 4993 ft 11:44 AM CST Rapid Fire

Show More Stations Show Fewer Stations